Terminal Aerodrome Forecast
Issued by NWS Bismarck, ND

Home | Current Version | Previous Version | Graphics & Text | Print | Product List | Glossary Off
Versions: 1 2 3 4 5 6 7 8 9 10 11 12 13 14 15 16 17 18 19

066
FTUS43 KBIS 242324
TAFISN
TAF
KISN 242324Z 2500/2524 33008KT P6SM -SN SCT015 OVC050
     FM250500 32006KT P6SM OVC025
     FM250900 31006KT P6SM OVC015
     FM251700 31008KT P6SM OVC020=

USA.gov is the U.S. government's official web portal to all federal, state and local government web resources and services.